Time;durP1;ratioP1;P1;durP2;ratioP2;P2;SDS_P1;SDS_P2;PMS_P1;PMS_P2;Temp;Humidity;BMP_temperature;BMP_pressure;BME280_temperature;BME280_humidity;BME280_pressure;Samples;Min_cycle;Max_cycle;Signal;HPM_P1;HPM_P2
2022/02/17 00:00:22;;;;;;;11.97;2.93;;;;;;;11.47;100.00;99155.09;2010435;29;20293;-60
2022/02/17 00:01:22;;;;;;;10.07;2.63;;;;;;;11.46;100.00;99142.94;2010407;29;20033;-61
2022/02/17 00:02:22;;;;;;;11.20;2.53;;;;;;;11.53;100.00;99149.38;2010441;29;20029;-62
2022/02/17 00:03:22;;;;;;;10.10;3.00;;;;;;;11.54;100.00;99132.78;2010473;29;20037;-61
2022/02/17 00:04:23;;;;;;;9.60;2.57;;;;;;;11.44;100.00;99142.25;2010450;29;20105;-61
2022/02/17 00:05:24;;;;;;;11.13;2.83;;;;;;;11.40;100.00;99130.34;2010500;29;20447;-60
2022/02/17 00:06:24;;;;;;;8.15;3.13;;;;;;;11.36;100.00;99136.75;2011859;29;20036;-60
2022/02/17 00:07:24;;;;;;;9.37;3.33;;;;;;;11.18;100.00;99129.28;2011851;29;20041;-59
2022/02/17 00:08:25;;;;;;;8.97;4.70;;;;;;;11.15;100.00;99113.88;2011855;29;20048;-59
2022/02/17 00:09:26;;;;;;;13.93;5.13;;;;;;;10.95;100.00;99113.53;2011877;29;20030;-63
2022/02/17 00:10:28;;;;;;;9.30;3.50;;;;;;;10.91;100.00;99127.72;2011850;29;20555;-61
2022/02/17 00:11:28;;;;;;;13.52;4.38;;;;;;;10.95;100.00;99123.97;2011788;29;20040;-62
2022/02/17 00:12:30;;;;;;;8.43;4.30;;;;;;;10.87;100.00;99111.47;2018867;29;20081;-61
2022/02/17 00:13:31;;;;;;;14.25;4.47;;;;;;;10.80;100.00;99121.50;2011176;29;20058;-60
2022/02/17 00:14:31;;;;;;;10.97;5.13;;;;;;;10.78;100.00;99123.38;2011245;29;20078;-59
2022/02/17 00:15:33;;;;;;;11.67;5.43;;;;;;;10.80;100.00;99116.28;2018777;29;20025;-62
2022/02/17 00:16:33;;;;;;;11.65;4.57;;;;;;;10.77;100.00;99113.91;2018836;29;20080;-64
2022/02/17 00:17:34;;;;;;;11.00;5.27;;;;;;;10.81;100.00;99112.72;2011817;29;20104;-59
2022/02/17 00:18:34;;;;;;;11.50;5.07;;;;;;;10.86;100.00;99108.97;2011827;29;20033;-61
2022/02/17 00:19:34;;;;;;;8.97;4.80;;;;;;;10.79;100.00;99125.06;2012015;29;20452;-59
2022/02/17 00:20:34;;;;;;;10.43;5.40;;;;;;;10.78;100.00;99086.03;2018819;29;20052;-61
2022/02/17 00:21:35;;;;;;;15.33;5.87;;;;;;;10.79;100.00;99124.22;2018905;29;20025;-60
2022/02/17 00:22:36;;;;;;;13.70;5.13;;;;;;;10.76;100.00;99117.47;2011703;29;20033;-61
2022/02/17 00:23:37;;;;;;;19.05;5.85;;;;;;;10.85;100.00;99122.97;2011044;29;20038;-60
2022/02/17 00:24:37;;;;;;;15.88;5.93;;;;;;;10.67;100.00;99120.69;2011124;29;20048;-59
2022/02/17 00:25:37;;;;;;;12.80;5.83;;;;;;;10.57;100.00;99104.84;2011711;29;20032;-61
2022/02/17 00:26:37;;;;;;;10.47;5.57;;;;;;;10.54;100.00;99141.63;2011740;29;20464;-59
2022/02/17 00:27:39;;;;;;;7.97;4.63;;;;;;;10.66;100.00;99113.81;2011665;29;20087;-59
2022/02/17 00:28:40;;;;;;;11.88;6.53;;;;;;;10.58;100.00;99121.34;2011596;29;20033;-60
2022/02/17 00:29:40;;;;;;;15.38;5.85;;;;;;;10.45;100.00;99137.88;2011718;29;20029;-59
2022/02/17 00:30:41;;;;;;;12.07;5.05;;;;;;;10.39;100.00;99106.94;2011621;29;20032;-59
2022/02/17 00:31:41;;;;;;;8.33;4.10;;;;;;;10.39;100.00;99148.66;2011682;29;20491;-60
2022/02/17 00:32:41;;;;;;;11.60;5.30;;;;;;;10.37;100.00;99142.75;2011602;29;20644;-60
2022/02/17 00:33:42;;;;;;;17.20;4.33;;;;;;;10.42;100.00;99132.81;2011617;29;20759;-60
2022/02/17 00:34:42;;;;;;;9.63;4.80;;;;;;;10.38;100.00;99136.59;2011604;29;20026;-59
2022/02/17 00:35:43;;;;;;;13.97;4.83;;;;;;;10.38;100.00;99136.59;2011655;29;20029;-61
2022/02/17 00:36:43;;;;;;;7.60;3.70;;;;;;;10.48;100.00;99054.19;2011602;29;20103;-60
2022/02/17 00:37:43;;;;;;;12.43;3.67;;;;;;;10.56;100.00;99152.75;2011635;29;20051;-59
2022/02/17 00:38:45;;;;;;;10.10;4.00;;;;;;;10.48;100.00;99136.81;2011601;29;20403;-60
2022/02/17 00:39:45;;;;;;;14.43;4.75;;;;;;;10.36;100.00;99164.53;2011517;29;20515;-60
2022/02/17 00:40:46;;;;;;;14.37;4.30;;;;;;;10.43;100.00;99156.19;2010976;29;20056;-60
2022/02/17 00:41:46;;;;;;;12.60;3.83;;;;;;;10.55;100.00;99166.75;2011021;29;20152;-60
2022/02/17 00:42:46;;;;;;;11.50;4.17;;;;;;;10.40;100.00;99161.59;2018527;29;20025;-60
2022/02/17 00:43:47;;;;;;;19.57;4.17;;;;;;;10.50;100.00;99164.44;2018731;29;20084;-60
2022/02/17 00:44:49;;;;;;;13.87;3.43;;;;;;;10.54;100.00;99171.13;2011606;29;20052;-61
2022/02/17 00:45:50;;;;;;;19.33;4.72;;;;;;;10.59;100.00;99162.13;2011557;29;20029;-61
2022/02/17 00:46:51;;;;;;;19.23;5.10;;;;;;;10.39;100.00;99153.88;2011457;29;20035;-59
2022/02/17 00:47:51;;;;;;;21.08;4.00;;;;;;;10.33;100.00;99183.00;2011586;29;20025;-60
2022/02/17 00:48:51;;;;;;;10.43;3.27;;;;;;;10.61;100.00;99165.50;2011445;29;20037;-62
2022/02/17 00:49:51;;;;;;;19.83;3.93;;;;;;;10.45;100.00;99176.13;2010814;29;20071;-62
2022/02/17 00:50:51;;;;;;;17.37;4.40;;;;;;;10.36;100.00;99169.75;2010924;29;20034;-61
2022/02/17 00:51:52;;;;;;;15.40;4.00;;;;;;;10.47;100.00;99151.63;2011453;29;20037;-62
2022/02/17 00:52:53;;;;;;;22.20;4.78;;;;;;;10.42;100.00;99183.22;2011496;29;20037;-60
2022/02/17 00:53:53;;;;;;;13.10;3.50;;;;;;;10.63;100.00;99176.63;2011562;29;20112;-61
2022/02/17 00:54:53;;;;;;;22.70;4.93;;;;;;;10.52;100.00;99180.84;2011562;29;20119;-60
2022/02/17 00:55:54;;;;;;;13.52;3.22;;;;;;;10.54;100.00;99137.22;2011487;29;20037;-61
2022/02/17 00:56:54;;;;;;;13.10;4.00;;;;;;;10.53;100.00;99179.91;2011447;29;20033;-61
2022/02/17 00:57:54;;;;;;;15.10;4.07;;;;;;;10.39;100.00;99190.41;2011530;29;20116;-61
2022/02/17 00:58:55;;;;;;;9.73;3.30;;;;;;;10.50;100.00;99177.50;2011487;29;20365;-62
2022/02/17 00:59:55;;;;;;;17.63;4.00;;;;;;;10.52;100.00;99201.72;2011497;29;20036;-62
2022/02/17 01:00:55;;;;;;;14.07;2.40;;;;;;;10.62;100.00;99196.69;2011494;29;20040;-62
2022/02/17 01:01:56;;;;;;;15.00;3.37;;;;;;;10.66;100.00;99181.66;2011434;29;20056;-62
2022/02/17 01:02:57;;;;;;;23.00;5.60;;;;;;;10.55;100.00;99183.22;2011433;29;20369;-61
2022/02/17 01:03:57;;;;;;;11.30;3.40;;;;;;;10.51;100.00;99186.97;2011384;29;20117;-61
2022/02/17 01:04:57;;;;;;;16.57;3.83;;;;;;;10.51;100.00;99192.19;2011405;29;20033;-61
2022/02/17 01:05:57;;;;;;;16.83;3.87;;;;;;;10.51;100.00;99173.13;2011420;29;20026;-61
2022/02/17 01:06:58;;;;;;;17.60;3.60;;;;;;;10.70;99.95;99193.53;2011456;29;20029;-63
2022/02/17 01:07:58;;;;;;;11.67;3.37;;;;;;;10.84;99.41;99194.38;2011437;29;20029;-63
2022/02/17 01:08:59;;;;;;;10.43;3.38;;;;;;;10.89;98.70;99156.56;2011388;29;20112;-62
2022/02/17 01:09:59;;;;;;;9.60;2.90;;;;;;;10.75;99.07;99201.91;2011303;29;20068;-63
2022/02/17 01:10:59;;;;;;;18.07;3.60;;;;;;;10.86;98.55;99195.94;2011401;29;20060;-62
2022/02/17 01:12:00;;;;;;;16.93;3.67;;;;;;;11.23;93.26;99200.31;2011329;29;20093;-63
2022/02/17 01:13:00;;;;;;;18.87;3.93;;;;;;;11.07;94.26;99232.72;2011346;29;20075;-64
2022/02/17 01:14:01;;;;;;;15.30;3.35;;;;;;;10.87;95.36;99231.50;2011343;29;20045;-62
2022/02/17 01:15:02;;;;;;;17.45;3.55;;;;;;;10.85;94.30;99206.47;2011293;29;20391;-64
2022/02/17 01:16:02;;;;;;;17.13;3.38;;;;;;;11.07;94.38;99226.66;2011369;29;20563;-63
2022/02/17 01:17:03;;;;;;;18.10;3.73;;;;;;;11.11;93.12;99215.06;2011007;29;20038;-63
2022/02/17 01:18:04;;;;;;;19.15;3.90;;;;;;;11.13;92.48;99214.97;2010710;29;20064;-63
2022/02/17 01:19:04;;;;;;;17.60;3.33;;;;;;;10.98;92.41;99227.31;2011204;29;20039;-61
2022/02/17 01:20:06;;;;;;;16.07;3.57;;;;;;;10.97;92.46;99192.56;2011178;29;20025;-63
2022/02/17 01:21:06;;;;;;;20.60;3.65;;;;;;;11.01;92.48;99254.03;2011219;29;20026;-63
2022/02/17 01:22:07;;;;;;;11.07;2.53;;;;;;;11.03;92.71;99184.28;2011216;29;20121;-63
2022/02/17 01:23:08;;;;;;;20.07;3.83;;;;;;;11.05;92.61;99229.38;2011257;29;20071;-61
2022/02/17 01:24:08;;;;;;;20.40;4.15;;;;;;;11.06;92.40;99236.25;2011308;29;20040;-62
2022/02/17 01:25:09;;;;;;;17.57;5.07;;;;;;;11.00;91.96;99226.28;2018296;29;20047;-62
2022/02/17 01:26:09;;;;;;;13.10;3.90;;;;;;;11.05;91.67;99229.38;2018422;29;20519;-63
2022/02/17 01:27:09;;;;;;;15.00;4.53;;;;;;;11.07;92.29;99243.19;2011260;29;20057;-64
2022/02/17 01:28:10;;;;;;;13.47;3.47;;;;;;;11.14;91.96;99242.72;2011238;29;20146;-63
2022/02/17 01:29:10;;;;;;;17.15;3.63;;;;;;;11.00;93.06;99231.50;2010492;29;20132;-63
2022/02/17 01:30:11;;;;;;;20.87;3.63;;;;;;;10.97;93.92;99225.63;2010565;29;20109;-63
2022/02/17 01:31:11;;;;;;;15.85;4.53;;;;;;;10.92;92.64;99229.41;2010507;29;20025;-61
2022/02/17 01:32:12;;;;;;;18.03;3.67;;;;;;;10.99;92.87;99257.69;2010609;29;20045;-62
2022/02/17 01:33:12;;;;;;;19.23;4.55;;;;;;;10.91;93.58;99247.78;2011198;29;20029;-63
2022/02/17 01:34:12;;;;;;;17.10;3.90;;;;;;;10.90;94.66;99256.56;2011164;29;20033;-62
2022/02/17 01:35:13;;;;;;;11.13;3.23;;;;;;;10.97;94.42;99289.13;2011246;29;20036;-62
2022/02/17 01:36:13;;;;;;;18.97;3.40;;;;;;;11.12;92.97;99250.66;2011219;29;20037;-63
2022/02/17 01:37:14;;;;;;;18.90;3.93;;;;;;;11.05;91.29;99271.16;2011113;29;20548;-61
2022/02/17 01:38:14;;;;;;;14.75;3.35;;;;;;;10.99;92.68;99223.75;2011154;29;20704;-62
2022/02/17 01:39:15;;;;;;;25.97;4.07;;;;;;;11.17;90.14;99271.25;2011155;29;20064;-61
2022/02/17 01:40:15;;;;;;;18.83;4.37;;;;;;;11.33;88.13;99277.03;2018125;29;20411;-62
2022/02/17 01:41:16;;;;;;;16.03;3.20;;;;;;;11.22;88.44;99258.69;2018172;29;20044;-63
2022/02/17 01:42:17;;;;;;;21.95;4.63;;;;;;;11.46;87.31;99284.00;2010514;29;20029;-61
2022/02/17 01:43:17;;;;;;;10.18;2.97;;;;;;;11.36;88.80;99277.78;2010523;29;20030;-62
2022/02/17 01:44:17;;;;;;;21.77;5.00;;;;;;;11.26;89.15;99248.88;2011058;29;20068;-64
2022/02/17 01:45:18;;;;;;;14.57;4.00;;;;;;;11.32;88.74;99309.34;2011158;29;20033;-60
2022/02/17 01:46:35;;;;;;;19.37;3.37;;;;;;;11.23;88.55;99283.88;2011082;29;20029;-62
2022/02/17 01:47:36;;;;;;;18.65;3.65;;;;;;;11.12;87.62;99286.41;2011101;29;20112;-63
2022/02/17 01:48:36;;;;;;;14.20;4.23;;;;;;;11.13;87.71;99288.91;2011056;29;20165;-62
2022/02/17 01:49:37;;;;;;;25.70;4.45;;;;;;;11.18;87.14;99283.34;2010368;29;20035;-64
2022/02/17 01:50:41;;;;;;;27.40;4.20;;;;;;;11.18;87.31;99361.69;2010357;29;20411;-62
2022/02/17 01:51:42;;;;;;;20.30;4.47;;;;;;;11.24;88.20;99319.47;2010484;29;20088;-61
2022/02/17 01:52:42;;;;;;;18.77;4.35;;;;;;;10.62;90.19;99341.94;2010988;29;20407;-66
2022/02/17 01:53:42;;;;;;;16.13;3.60;;;;;;;10.39;91.06;99341.66;2011043;29;20491;-62
2022/02/17 01:54:45;;;;;;;25.37;3.67;;;;;;;10.40;91.85;99359.81;2011005;29;20025;-61
2022/02/17 01:55:52;;;;;;;13.88;3.03;;;;;;;10.46;92.36;99382.06;2011002;29;20025;-61
2022/02/17 01:56:52;;;;;;;29.38;3.83;;;;;;;10.11;94.06;99336.47;2010962;29;20041;-62
2022/02/17 01:57:53;;;;;;;12.27;4.18;;;;;;;9.94;96.82;99334.94;2011019;29;20124;-62
2022/02/17 01:58:54;;;;;;;18.70;4.15;;;;;;;9.55;99.10;99357.38;2011017;29;20021;-62
2022/02/17 01:59:55;;;;;;;18.17;3.72;;;;;;;9.38;100.00;99335.81;2011094;29;20491;-61
2022/02/17 02:00:55;;;;;;;15.57;3.10;;;;;;;9.28;100.00;99341.56;2011133;29;20066;-61
2022/02/17 02:01:55;;;;;;;15.50;3.93;;;;;;;9.34;100.00;99349.97;2011082;29;20112;-61
2022/02/17 02:02:56;;;;;;;24.23;3.80;;;;;;;9.14;99.74;99352.00;2011000;29;20506;-61
2022/02/17 02:03:56;;;;;;;16.23;3.30;;;;;;;9.32;98.24;99359.63;2011071;29;20033;-61
2022/02/17 02:04:56;;;;;;;18.27;4.17;;;;;;;9.26;98.52;99312.22;2010889;29;20036;-63
2022/02/17 02:05:57;;;;;;;17.60;4.53;;;;;;;9.18;98.58;99343.09;2011066;29;20058;-61
2022/02/17 02:06:57;;;;;;;18.13;4.03;;;;;;;9.22;98.32;99351.53;2018053;29;20053;-61
2022/02/17 02:07:57;;;;;;;20.37;3.67;;;;;;;9.08;97.02;99352.38;2018122;29;20032;-60
2022/02/17 02:08:57;;;;;;;17.73;3.17;;;;;;;9.10;97.39;99340.13;2011008;29;20513;-60
2022/02/17 02:09:58;;;;;;;21.60;4.33;;;;;;;9.47;94.90;99319.63;2010901;29;20030;-63
2022/02/17 02:10:58;;;;;;;27.33;4.97;;;;;;;9.38;94.55;99338.44;2010978;29;20033;-62
2022/02/17 02:11:58;;;;;;;17.80;3.87;;;;;;;9.27;95.62;99344.25;2010989;29;20547;-61
2022/02/17 02:13:00;;;;;;;27.10;3.97;;;;;;;9.24;95.04;99344.47;2010990;29;20456;-60
2022/02/17 02:14:00;;;;;;;15.48;3.58;;;;;;;9.32;95.11;99346.59;2010913;29;20034;-62
2022/02/17 02:15:00;;;;;;;19.23;4.33;;;;;;;9.53;93.47;99321.84;2010275;29;20106;-60
2022/02/17 02:16:01;;;;;;;19.03;4.57;;;;;;;9.66;93.01;99313.25;2010289;29;20064;-62
2022/02/17 02:17:03;;;;;;;23.60;5.20;;;;;;;9.70;91.93;99340.78;2010176;29;20112;-62
2022/02/17 02:18:04;;;;;;;23.17;5.60;;;;;;;9.56;91.54;99365.09;2010303;29;20029;-61
2022/02/17 02:19:04;;;;;;;25.23;5.28;;;;;;;9.53;91.86;99370.47;2017865;29;20121;-60
2022/02/17 02:20:07;;;;;;;26.00;5.30;;;;;;;9.61;91.96;99336.16;2017911;29;20059;-62
2022/02/17 02:21:07;;;;;;;27.05;4.85;;;;;;;9.69;91.16;99369.53;2010804;29;20021;-61
2022/02/17 02:22:07;;;;;;;25.53;4.07;;;;;;;9.56;91.15;99359.03;2010892;29;20491;-62
2022/02/17 02:23:07;;;;;;;29.73;4.90;;;;;;;9.48;92.04;99373.38;2010826;29;20529;-61
2022/02/17 02:24:08;;;;;;;17.93;4.20;;;;;;;9.56;90.74;99374.66;2010873;29;20453;-62
2022/02/17 02:25:09;;;;;;;20.30;4.43;;;;;;;9.73;90.33;99389.25;2010951;29;20428;-61
2022/02/17 02:26:09;;;;;;;19.42;3.92;;;;;;;9.74;89.34;99373.53;2010814;29;20038;-62
2022/02/17 02:27:14;;;;;;;22.53;4.43;;;;;;;9.66;88.42;99380.97;2010804;29;20048;-62
2022/02/17 02:28:26;;;;;;;31.35;6.47;;;;;;;9.75;88.47;99403.84;2017761;29;20036;-62
2022/02/17 02:29:26;;;;;;;21.75;5.18;;;;;;;9.86;88.63;99408.38;2015626;29;20060;-61
2022/02/17 02:30:27;;;;;;;28.87;4.60;;;;;;;9.68;89.56;99420.78;2017696;29;20036;-62
2022/02/17 02:31:27;;;;;;;26.03;6.33;;;;;;;9.71;88.81;99409.38;2017819;29;20028;-62
2022/02/17 02:32:27;;;;;;;22.63;4.90;;;;;;;9.69;88.68;99412.06;2010794;29;20476;-63
2022/02/17 02:33:28;;;;;;;19.67;4.57;;;;;;;9.70;87.64;99398.09;2010806;29;20211;-64
2022/02/17 02:34:28;;;;;;;17.95;5.15;;;;;;;9.68;89.05;99423.38;2010140;29;20604;-62
2022/02/17 02:35:28;;;;;;;20.67;5.07;;;;;;;9.79;88.17;99355.81;2010139;29;20547;-63
2022/02/17 02:36:29;;;;;;;24.60;4.37;;;;;;;9.95;85.41;99396.56;2010786;29;20483;-61
2022/02/17 02:37:29;;;;;;;30.38;5.13;;;;;;;9.93;85.87;99414.06;2010760;29;20030;-62
2022/02/17 02:38:29;;;;;;;21.93;3.67;;;;;;;9.80;86.07;99414.00;2010843;29;20029;-64
2022/02/17 02:39:31;;;;;;;25.73;5.00;;;;;;;9.62;86.84;99416.78;2010754;29;20555;-63
2022/02/17 02:40:31;;;;;;;26.50;4.50;;;;;;;9.71;86.60;99412.78;2010768;29;20045;-62
2022/02/17 02:41:31;;;;;;;19.80;4.57;;;;;;;9.76;87.41;99422.94;2010640;29;20044;-63
2022/02/17 02:42:32;;;;;;;24.53;4.63;;;;;;;9.72;86.32;99427.47;2010780;29;20029;-61
2022/02/17 02:43:32;;;;;;;23.07;5.40;;;;;;;9.74;86.57;99437.81;2010714;29;20057;-62
2022/02/17 02:44:33;;;;;;;17.00;3.65;;;;;;;9.65;86.83;99421.00;2010757;29;20113;-62
2022/02/17 02:45:34;;;;;;;24.73;5.03;;;;;;;9.50;87.15;99425.34;2017745;29;20125;-63
2022/02/17 02:46:34;;;;;;;21.23;4.32;;;;;;;9.49;87.35;99413.28;2009863;29;20033;-61
2022/02/17 02:47:34;;;;;;;19.37;3.87;;;;;;;9.58;86.45;99424.91;2010189;29;20491;-62
2022/02/17 02:48:35;;;;;;;17.30;3.13;;;;;;;9.77;85.77;99441.06;2010756;29;20056;-61
2022/02/17 02:49:37;;;;;;;21.42;4.00;;;;;;;9.58;85.78;99456.16;2010721;29;20022;-61
2022/02/17 02:50:38;;;;;;;13.40;3.30;;;;;;;9.75;84.83;99411.66;2010615;29;20044;-63
2022/02/17 02:51:38;;;;;;;23.55;5.15;;;;;;;9.77;84.34;99456.72;2017734;29;20112;-61
2022/02/17 02:52:38;;;;;;;20.07;4.23;;;;;;;9.73;83.99;99452.63;2010006;29;20028;-62
2022/02/17 02:53:38;;;;;;;19.10;3.33;;;;;;;9.69;85.11;99458.94;2010044;29;20127;-62
2022/02/17 02:54:39;;;;;;;18.17;3.93;;;;;;;9.56;84.65;99458.00;2010070;29;20045;-62
2022/02/17 02:55:39;;;;;;;19.03;4.20;;;;;;;9.56;84.52;99502.28;2010028;29;20161;-61
2022/02/17 02:56:39;;;;;;;30.63;5.27;;;;;;;9.64;83.49;99474.84;2017646;29;20032;-60
2022/02/17 02:57:40;;;;;;;20.58;4.30;;;;;;;9.82;82.35;99447.78;2010677;29;20029;-63
2022/02/17 02:58:40;;;;;;;25.23;4.07;;;;;;;9.78;80.45;99479.22;2010678;29;20034;-62
2022/02/17 02:59:42;;;;;;;18.87;4.37;;;;;;;9.83;80.25;99470.28;2010650;29;20100;-62
2022/02/17 03:00:44;;;;;;;24.58;4.00;;;;;;;9.58;81.47;99487.41;2017560;29;20025;-61
2022/02/17 03:01:44;;;;;;;21.13;3.83;;;;;;;9.44;82.40;99468.22;2017549;29;20104;-62
2022/02/17 03:02:45;;;;;;;19.23;3.07;;;;;;;9.55;81.78;99479.78;2010688;29;20032;-63
2022/02/17 03:03:48;;;;;;;23.13;4.53;;;;;;;9.57;82.12;99475.28;2010667;29;20025;-64
2022/02/17 03:04:49;;;;;;;22.30;4.65;;;;;;;9.73;78.91;99470.84;2010543;29;20487;-62
2022/02/17 03:05:49;;;;;;;21.17;3.88;;;;;;;9.73;79.28;99485.63;2010529;29;20029;-62
2022/02/17 03:06:49;;;;;;;18.60;3.97;;;;;;;9.74;77.79;99475.13;2010555;29;20041;-61
2022/02/17 03:07:49;;;;;;;22.50;4.77;;;;;;;9.71;77.65;99471.88;2010518;29;20076;-63
2022/02/17 03:08:49;;;;;;;12.90;3.53;;;;;;;9.67;78.54;99393.06;2010547;29;20174;-63
2022/02/17 03:09:50;;;;;;;17.03;3.10;;;;;;;9.78;78.59;99481.81;2010627;29;20512;-62
2022/02/17 03:10:50;;;;;;;25.87;4.63;;;;;;;9.84;77.31;99477.16;2010499;29;20436;-62
2022/02/17 03:11:50;;;;;;;26.77;4.67;;;;;;;9.96;76.19;99494.66;2010539;29;20081;-62
2022/02/17 03:12:51;;;;;;;17.57;3.67;;;;;;;9.82;76.59;99494.66;2010644;29;20384;-62
2022/02/17 03:13:51;;;;;;;18.10;3.17;;;;;;;9.85;77.29;99516.16;2010559;29;20061;-63
2022/02/17 03:14:51;;;;;;;23.37;4.20;;;;;;;9.88;76.50;99483.84;2010513;29;20085;-62
2022/02/17 03:15:51;;;;;;;20.80;4.53;;;;;;;10.03;75.92;99505.56;2010517;29;20033;-61
2022/02/17 03:16:52;;;;;;;17.27;3.43;;;;;;;10.05;76.61;99494.09;2010503;29;20037;-63
2022/02/17 03:17:53;;;;;;;18.13;5.43;;;;;;;9.94;77.18;99532.16;2010443;29;20041;-62
2022/02/17 03:18:54;;;;;;;11.90;3.08;;;;;;;9.79;78.10;99514.75;2010485;29;20033;-61
2022/02/17 03:19:55;;;;;;;22.50;4.35;;;;;;;9.75;78.47;99504.63;2010502;29;20403;-63
2022/02/17 03:20:55;;;;;;;17.83;3.95;;;;;;;9.56;79.63;99531.78;2010452;29;20041;-63
2022/02/17 03:21:55;;;;;;;25.33;4.67;;;;;;;9.57;80.04;99507.41;2010510;29;20025;-62
2022/02/17 03:22:56;;;;;;;26.07;4.33;;;;;;;9.44;80.42;99522.91;2017522;29;20033;-62
2022/02/17 03:23:56;;;;;;;23.73;5.50;;;;;;;9.41;81.40;99525.69;2017560;29;20448;-62
2022/02/17 03:24:56;;;;;;;22.50;5.30;;;;;;;9.72;79.73;99512.63;2010482;29;20021;-63
2022/02/17 03:25:57;;;;;;;26.13;6.57;;;;;;;9.64;79.54;99539.13;2010491;29;20052;-61
2022/02/17 03:26:58;;;;;;;22.63;3.92;;;;;;;9.73;79.15;99532.53;2010515;29;20474;-61
2022/02/17 03:27:58;;;;;;;19.03;4.73;;;;;;;9.78;79.38;99540.91;2010541;29;20026;-62
2022/02/17 03:28:58;;;;;;;27.13;5.30;;;;;;;9.87;79.08;99547.34;2010444;29;20040;-63
2022/02/17 03:29:58;;;;;;;20.13;5.43;;;;;;;9.83;79.42;99533.66;2010270;29;20041;-62
2022/02/17 03:30:59;;;;;;;23.50;4.57;;;;;;;9.70;80.41;99523.13;2010489;29;20045;-63
2022/02/17 03:31:59;;;;;;;26.43;5.67;;;;;;;9.67;81.29;99544.16;2010424;29;20574;-62
2022/02/17 03:33:01;;;;;;;29.40;6.57;;;;;;;9.50;81.48;99574.66;2010364;29;20454;-60
2022/02/17 03:34:01;;;;;;;25.52;5.22;;;;;;;9.50;82.42;99550.34;2010277;29;20475;-61
2022/02/17 03:35:04;;;;;;;26.13;5.70;;;;;;;9.60;80.50;99533.28;2017445;29;20124;-61
2022/02/17 03:36:05;;;;;;;19.77;4.95;;;;;;;9.83;79.59;99530.22;2009711;29;20178;-62
2022/02/17 03:37:05;;;;;;;21.33;5.20;;;;;;;9.84;79.26;99540.53;2009695;29;20036;-62
2022/02/17 03:38:05;;;;;;;23.27;5.03;;;;;;;9.66;80.23;99552.91;2009843;29;20058;-62
2022/02/17 03:39:06;;;;;;;27.27;4.43;;;;;;;9.64;78.94;99550.38;2010353;29;20510;-62
2022/02/17 03:40:07;;;;;;;27.63;5.13;;;;;;;9.68;79.37;99511.97;2010370;29;20124;-63
2022/02/17 03:41:07;;;;;;;18.50;4.65;;;;;;;9.73;79.47;99571.59;2011392;29;20033;-64
2022/02/17 03:42:07;;;;;;;18.50;4.33;;;;;;;9.84;78.07;99555.31;2018821;29;20032;-63
2022/02/17 03:43:08;;;;;;;29.00;4.53;;;;;;;9.70;78.88;99564.81;2018863;29;20107;-62
2022/02/17 03:44:08;;;;;;;21.77;3.57;;;;;;;9.60;80.53;99564.53;2018976;29;20077;-62
2022/02/17 03:45:10;;;;;;;17.90;5.10;;;;;;;9.58;78.74;99578.56;2011927;29;20029;-62
2022/02/17 03:46:10;;;;;;;23.20;5.53;;;;;;;9.47;80.26;99546.16;2011924;29;20029;-62
2022/02/17 03:47:10;;;;;;;28.43;5.30;;;;;;;9.71;79.20;99563.88;2011788;29;20038;-63
2022/02/17 03:48:11;;;;;;;29.93;4.53;;;;;;;9.59;79.28;99562.00;2012005;29;20029;-62
2022/02/17 03:49:11;;;;;;;16.57;4.30;;;;;;;9.46;80.37;99551.47;2012004;29;20055;-62
2022/02/17 03:50:11;;;;;;;23.00;4.43;;;;;;;9.49;79.37;99572.97;2011914;29;20036;-64
2022/02/17 03:51:11;;;;;;;28.40;7.17;;;;;;;9.42;78.94;99573.41;2011980;29;20125;-63
2022/02/17 03:52:12;;;;;;;26.13;5.70;;;;;;;9.46;79.96;99567.94;2011843;29;20081;-63
2022/02/17 03:53:12;;;;;;;22.07;5.40;;;;;;;9.55;79.09;99570.94;2011953;29;20029;-62
2022/02/17 03:54:12;;;;;;;17.52;4.05;;;;;;;9.58;78.41;99573.38;2018725;29;20032;-62
2022/02/17 03:55:15;;;;;;;32.30;5.30;;;;;;;9.62;77.61;99582.66;2018970;29;20031;-62
2022/02/17 03:56:15;;;;;;;18.92;4.32;;;;;;;9.56;78.62;99593.44;2011089;29;20430;-62
2022/02/17 03:57:15;;;;;;;16.30;3.60;;;;;;;9.55;79.37;99576.13;2011214;29;20046;-62
2022/02/17 03:59:01;;;;;;;20.87;3.83;;;;;;;9.60;79.58;99592.31;2018780;29;20495;-61
2022/02/17 03:59:36;;;;;;;20.00;5.70;;;;;;;9.37;80.02;99573.66;2009933;29;20431;-63
2022/02/17 04:00:36;;;;;;;19.90;4.30;;;;;;;9.31;81.13;99545.41;2011938;29;20195;-61
2022/02/17 04:01:38;;;;;;;17.97;4.93;;;;;;;9.33;80.30;99593.00;2011880;29;20017;-64
2022/02/17 04:02:38;;;;;;;;;;;;;;;9.34;79.69;99581.66;2012192;29;20028;-61
2022/02/17 04:03:38;;;;;;;15.55;4.70;;;;;;;9.47;77.84;99595.66;2011808;29;20289;-61
2022/02/17 04:04:38;;;;;;;24.10;4.10;;;;;;;9.56;77.83;99593.44;2011891;29;20057;-63
2022/02/17 04:05:39;;;;;;;20.43;4.57;;;;;;;9.65;76.96;99572.06;2011844;29;20108;-63
2022/02/17 04:06:39;;;;;;;31.13;4.30;;;;;;;9.52;77.59;99603.22;2011752;29;20053;-62
2022/02/17 04:07:40;;;;;;;18.10;4.22;;;;;;;9.47;77.92;99598.25;2011808;29;20172;-63
2022/02/17 04:08:40;;;;;;;22.13;4.53;;;;;;;9.25;78.03;99596.06;2011812;29;20034;-63
2022/02/17 04:09:40;;;;;;;21.73;3.87;;;;;;;9.29;79.57;99610.56;2011785;29;20050;-64
2022/02/17 04:10:41;;;;;;;23.90;4.87;;;;;;;9.35;77.99;99599.81;2011781;29;20476;-62
2022/02/17 04:11:41;;;;;;;17.30;4.33;;;;;;;9.18;78.22;99603.38;2011777;29;20059;-64
2022/02/17 04:12:41;;;;;;;23.30;6.27;;;;;;;9.12;78.11;99606.31;2011784;29;20466;-64
2022/02/17 04:13:41;;;;;;;15.07;3.37;;;;;;;9.22;79.01;99596.22;2011749;29;20033;-63
2022/02/17 04:14:42;;;;;;;18.50;3.30;;;;;;;9.30;78.82;99616.63;2011787;29;20025;-62
2022/02/17 04:15:42;;;;;;;23.93;4.27;;;;;;;9.17;78.57;99588.66;2018772;29;20024;-64
2022/02/17 04:16:42;;;;;;;24.63;4.90;;;;;;;9.32;78.77;99596.53;2018863;29;20017;-62
2022/02/17 04:17:43;;;;;;;11.90;2.80;;;;;;;9.32;79.39;99615.59;2011070;29;20021;-63
2022/02/17 04:18:45;;;;;;;27.20;4.53;;;;;;;9.57;76.54;99622.00;2011001;29;20029;-62
2022/02/17 04:19:45;;;;;;;20.15;4.45;;;;;;;9.38;77.18;99627.44;2011081;29;20467;-65
2022/02/17 04:20:46;;;;;;;16.00;4.03;;;;;;;9.48;77.89;99623.34;2011082;29;20029;-62
2022/02/17 04:21:46;;;;;;;20.33;5.37;;;;;;;9.58;77.03;99631.47;2011082;29;20466;-63
2022/02/17 04:22:46;;;;;;;29.60;6.93;;;;;;;9.51;76.31;99627.53;2011708;29;20051;-64
2022/02/17 04:23:46;;;;;;;21.50;3.17;;;;;;;9.50;76.86;99629.34;2011695;29;20072;-63
2022/02/17 04:24:47;;;;;;;28.30;4.90;;;;;;;9.34;76.84;99641.56;2018682;29;20029;-63
2022/02/17 04:25:47;;;;;;;18.60;4.13;;;;;;;9.40;79.12;99643.78;2018757;29;20044;-63
2022/02/17 04:26:47;;;;;;;16.57;3.40;;;;;;;9.44;77.04;99642.69;2011647;29;20445;-62
2022/02/17 04:27:48;;;;;;;22.73;4.73;;;;;;;9.43;76.94;99640.19;2011676;29;20048;-62
2022/02/17 04:28:48;;;;;;;33.50;6.13;;;;;;;9.50;78.25;99620.66;2011619;29;20372;-63
2022/02/17 04:29:49;;;;;;;31.88;6.10;;;;;;;9.45;77.01;99641.78;2011591;29;20401;-62
2022/02/17 04:30:49;;;;;;;22.23;4.83;;;;;;;9.55;79.46;99633.44;2011483;29;20369;-62
2022/02/17 04:31:49;;;;;;;19.73;6.23;;;;;;;9.52;77.65;99637.06;2011565;29;20116;-63
2022/02/17 04:32:49;;;;;;;13.43;3.23;;;;;;;9.56;78.44;99630.75;2011648;29;20108;-61
2022/02/17 04:33:50;;;;;;;22.53;4.47;;;;;;;9.75;77.20;99648.75;2011549;29;20061;-62
2022/02/17 04:34:50;;;;;;;19.53;4.67;;;;;;;9.73;76.98;99658.44;2011611;29;20037;-64
2022/02/17 04:35:50;;;;;;;29.40;5.73;;;;;;;9.79;76.64;99629.41;2018528;29;20033;-62
2022/02/17 04:36:51;;;;;;;19.30;5.23;;;;;;;9.81;77.59;99657.16;2018720;29;20032;-63
2022/02/17 04:37:51;;;;;;;23.90;5.63;;;;;;;9.83;77.53;99657.88;2011603;29;20040;-63
2022/02/17 04:38:51;;;;;;;20.13;4.40;;;;;;;9.99;77.07;99652.63;2011617;29;20498;-62
2022/02/17 04:39:52;;;;;;;21.27;3.57;;;;;;;9.88;77.15;99682.75;2011617;29;20032;-62
2022/02/17 04:42:20;;;;;;;20.60;5.40;;;;;;;9.60;77.50;99696.50;2011600;29;20049;-62
2022/02/17 04:43:20;;;;;;;21.33;5.03;;;;;;;9.51;77.26;99684.84;2011462;29;20042;-61
2022/02/17 04:44:21;;;;;;;24.37;4.20;;;;;;;9.62;78.52;99697.28;2011519;29;20369;-62
2022/02/17 04:45:21;;;;;;;16.20;5.87;;;;;;;9.70;77.43;99678.59;2011573;29;20041;-62